sensor_id;sensor_type;location;lat;lon;timestamp;temperature;humidity
52295;DHT22;38243;53.212;6.574;2023-03-24T00:01:51;17.00;93.30
52295;DHT22;38243;53.212;6.574;2023-03-24T00:04:17;17.00;93.50
52295;DHT22;38243;53.212;6.574;2023-03-24T00:06:43;17.00;93.50
52295;DHT22;38243;53.212;6.574;2023-03-24T00:09:09;17.00;93.60
52295;DHT22;38243;53.212;6.574;2023-03-24T00:11:35;17.00;93.50
52295;DHT22;38243;53.212;6.574;2023-03-24T00:14:02;17.00;93.50
52295;DHT22;38243;53.212;6.574;2023-03-24T00:16:28;17.00;93.70
52295;DHT22;38243;53.212;6.574;2023-03-24T00:18:54;16.90;93.50
52295;DHT22;38243;53.212;6.574;2023-03-24T00:21:22;17.00;93.60
52295;DHT22;38243;53.212;6.574;2023-03-24T00:23:50;17.00;93.70
52295;DHT22;38243;53.212;6.574;2023-03-24T00:26:19;17.00;93.70
52295;DHT22;38243;53.212;6.574;2023-03-24T00:28:47;16.90;93.70
52295;DHT22;38243;53.212;6.574;2023-03-24T00:31:15;17.00;93.60
52295;DHT22;38243;53.212;6.574;2023-03-24T00:33:42;17.00;93.60
52295;DHT22;38243;53.212;6.574;2023-03-24T00:36:10;17.00;93.60
52295;DHT22;38243;53.212;6.574;2023-03-24T00:38:40;16.90;93.60
52295;DHT22;38243;53.212;6.574;2023-03-24T00:41:09;16.90;93.70
52295;DHT22;38243;53.212;6.574;2023-03-24T00:43:38;16.90;93.70
52295;DHT22;38243;53.212;6.574;2023-03-24T00:46:07;16.90;93.70
52295;DHT22;38243;53.212;6.574;2023-03-24T00:48:35;16.90;93.90
52295;DHT22;38243;53.212;6.574;2023-03-24T00:51:05;16.90;93.80
52295;DHT22;38243;53.212;6.574;2023-03-24T00:53:36;16.90;93.80
52295;DHT22;38243;53.212;6.574;2023-03-24T00:56:02;16.90;93.70
52295;DHT22;38243;53.212;6.574;2023-03-24T00:58:28;16.90;93.70
52295;DHT22;38243;53.212;6.574;2023-03-24T01:00:56;16.90;93.80
52295;DHT22;38243;53.212;6.574;2023-03-24T01:03:23;16.90;93.70
52295;DHT22;38243;53.212;6.574;2023-03-24T01:05:59;16.90;93.80
52295;DHT22;38243;53.212;6.574;2023-03-24T01:08:26;16.90;93.80
52295;DHT22;38243;53.212;6.574;2023-03-24T01:10:53;16.90;93.90
52295;DHT22;38243;53.212;6.574;2023-03-24T01:13:25;16.90;94.00
52295;DHT22;38243;53.212;6.574;2023-03-24T01:15:51;16.80;94.20
52295;DHT22;38243;53.212;6.574;2023-03-24T01:18:18;16.90;94.00
52295;DHT22;38243;53.212;6.574;2023-03-24T01:20:46;16.80;94.20
52295;DHT22;38243;53.212;6.574;2023-03-24T01:23:24;16.90;94.20
52295;DHT22;38243;53.212;6.574;2023-03-24T01:25:51;16.90;94.20
52295;DHT22;38243;53.212;6.574;2023-03-24T01:28:20;16.90;94.10
52295;DHT22;38243;53.212;6.574;2023-03-24T01:30:49;16.90;94.20
52295;DHT22;38243;53.212;6.574;2023-03-24T01:33:15;16.80;94.30
52295;DHT22;38243;53.212;6.574;2023-03-24T01:35:41;16.80;94.40
52295;DHT22;38243;53.212;6.574;2023-03-24T01:38:09;16.80;94.70
52295;DHT22;38243;53.212;6.574;2023-03-24T01:40:38;16.80;94.50
52295;DHT22;38243;53.212;6.574;2023-03-24T01:43:05;16.80;94.60
52295;DHT22;38243;53.212;6.574;2023-03-24T01:48:16;16.80;94.60
52295;DHT22;38243;53.212;6.574;2023-03-24T01:50:54;16.80;94.50
52295;DHT22;38243;53.212;6.574;2023-03-24T01:53:21;16.80;94.40
52295;DHT22;38243;53.212;6.574;2023-03-24T01:55:48;16.80;94.40
52295;DHT22;38243;53.212;6.574;2023-03-24T01:58:14;16.80;94.50
52295;DHT22;38243;53.212;6.574;2023-03-24T02:00:41;16.80;94.50
52295;DHT22;38243;53.212;6.574;2023-03-24T02:03:16;16.80;94.50
52295;DHT22;38243;53.212;6.574;2023-03-24T02:05:45;16.80;94.50
52295;DHT22;38243;53.212;6.574;2023-03-24T02:08:33;16.80;94.50
52295;DHT22;38243;53.212;6.574;2023-03-24T02:11:01;16.80;94.50
52295;DHT22;38243;53.212;6.574;2023-03-24T02:13:27;16.80;94.60
52295;DHT22;38243;53.212;6.574;2023-03-24T02:16:05;16.80;94.70
52295;DHT22;38243;53.212;6.574;2023-03-24T02:24:37;16.80;94.80
52295;DHT22;38243;53.212;6.574;2023-03-24T02:46:23;16.70;95.30
52295;DHT22;38243;53.212;6.574;2023-03-24T02:51:22;16.70;95.50
52295;DHT22;38243;53.212;6.574;2023-03-24T02:54:05;16.70;95.40
52295;DHT22;38243;53.212;6.574;2023-03-24T02:56:59;16.70;95.70
52295;DHT22;38243;53.212;6.574;2023-03-24T02:59:42;16.70;95.60
52295;DHT22;38243;53.212;6.574;2023-03-24T03:02:14;16.60;95.50
52295;DHT22;38243;53.212;6.574;2023-03-24T03:05:07;16.70;95.60
52295;DHT22;38243;53.212;6.574;2023-03-24T03:07:38;16.70;95.60
52295;DHT22;38243;53.212;6.574;2023-03-24T03:12:38;16.70;95.80
52295;DHT22;38243;53.212;6.574;2023-03-24T03:15:08;16.70;95.50
52295;DHT22;38243;53.212;6.574;2023-03-24T03:17:41;16.70;95.60
52295;DHT22;38243;53.212;6.574;2023-03-24T03:20:15;16.70;95.60
52295;DHT22;38243;53.212;6.574;2023-03-24T03:22:55;16.70;95.90
52295;DHT22;38243;53.212;6.574;2023-03-24T03:25:27;16.70;95.90
52295;DHT22;38243;53.212;6.574;2023-03-24T03:27:58;16.70;95.90
52295;DHT22;38243;53.212;6.574;2023-03-24T03:30:46;16.70;96.00
52295;DHT22;38243;53.212;6.574;2023-03-24T03:33:17;16.70;95.90
52295;DHT22;38243;53.212;6.574;2023-03-24T03:36:02;16.60;96.00
52295;DHT22;38243;53.212;6.574;2023-03-24T03:41:21;16.70;95.60
52295;DHT22;38243;53.212;6.574;2023-03-24T03:43:48;16.70;95.50
52295;DHT22;38243;53.212;6.574;2023-03-24T03:46:15;16.70;95.50
52295;DHT22;38243;53.212;6.574;2023-03-24T03:48:42;16.70;95.40
52295;DHT22;38243;53.212;6.574;2023-03-24T03:51:09;16.70;95.30
52295;DHT22;38243;53.212;6.574;2023-03-24T03:53:56;16.70;95.20
52295;DHT22;38243;53.212;6.574;2023-03-24T03:56:28;16.80;95.10
52295;DHT22;38243;53.212;6.574;2023-03-24T03:58:54;16.70;95.00
52295;DHT22;38243;53.212;6.574;2023-03-24T04:01:22;16.80;95.00
52295;DHT22;38243;53.212;6.574;2023-03-24T04:04:18;16.80;94.90
52295;DHT22;38243;53.212;6.574;2023-03-24T04:26:24;16.80;94.30
52295;DHT22;38243;53.212;6.574;2023-03-24T04:36:53;16.90;94.00
52295;DHT22;38243;53.212;6.574;2023-03-24T04:39:24;16.90;93.90
52295;DHT22;38243;53.212;6.574;2023-03-24T04:41:58;16.90;93.90
52295;DHT22;38243;53.212;6.574;2023-03-24T04:44:26;16.90;93.80
52295;DHT22;38243;53.212;6.574;2023-03-24T04:46:55;16.90;93.80
52295;DHT22;38243;53.212;6.574;2023-03-24T04:49:21;16.90;93.70
52295;DHT22;38243;53.212;6.574;2023-03-24T04:51:50;16.90;93.70
52295;DHT22;38243;53.212;6.574;2023-03-24T04:54:17;16.90;93.70
52295;DHT22;38243;53.212;6.574;2023-03-24T04:56:45;16.90;93.60
52295;DHT22;38243;53.212;6.574;2023-03-24T04:59:12;16.80;93.60
52295;DHT22;38243;53.212;6.574;2023-03-24T05:01:40;16.80;93.50
52295;DHT22;38243;53.212;6.574;2023-03-24T05:04:06;16.90;93.50
52295;DHT22;38243;53.212;6.574;2023-03-24T05:06:32;16.90;93.50
52295;DHT22;38243;53.212;6.574;2023-03-24T05:08:58;16.90;93.50
52295;DHT22;38243;53.212;6.574;2023-03-24T05:11:27;16.90;93.40
52295;DHT22;38243;53.212;6.574;2023-03-24T05:13:54;16.90;93.40
52295;DHT22;38243;53.212;6.574;2023-03-24T05:16:20;16.90;93.30
52295;DHT22;38243;53.212;6.574;2023-03-24T05:18:46;16.90;93.20
52295;DHT22;38243;53.212;6.574;2023-03-24T05:21:12;16.90;93.20
52295;DHT22;38243;53.212;6.574;2023-03-24T05:23:38;16.90;93.00
52295;DHT22;38243;53.212;6.574;2023-03-24T05:26:11;16.80;93.10
52295;DHT22;38243;53.212;6.574;2023-03-24T05:28:37;16.90;93.00
52295;DHT22;38243;53.212;6.574;2023-03-24T05:31:02;16.90;92.90
52295;DHT22;38243;53.212;6.574;2023-03-24T05:33:28;16.80;92.90
52295;DHT22;38243;53.212;6.574;2023-03-24T05:35:54;16.90;92.90
52295;DHT22;38243;53.212;6.574;2023-03-24T05:38:20;16.90;92.80
52295;DHT22;38243;53.212;6.574;2023-03-24T05:40:45;16.80;92.80
52295;DHT22;38243;53.212;6.574;2023-03-24T05:43:11;16.80;92.80
52295;DHT22;38243;53.212;6.574;2023-03-24T05:45:38;16.90;92.80
52295;DHT22;38243;53.212;6.574;2023-03-24T05:48:04;16.90;92.70
52295;DHT22;38243;53.212;6.574;2023-03-24T05:50:30;16.80;92.70
52295;DHT22;38243;53.212;6.574;2023-03-24T05:52:56;16.90;92.60
52295;DHT22;38243;53.212;6.574;2023-03-24T05:55:22;16.90;92.60
52295;DHT22;38243;53.212;6.574;2023-03-24T05:57:47;16.90;92.60
52295;DHT22;38243;53.212;6.574;2023-03-24T06:00:13;16.90;92.60
52295;DHT22;38243;53.212;6.574;2023-03-24T06:02:45;16.90;92.60
52295;DHT22;38243;53.212;6.574;2023-03-24T06:05:11;16.90;92.50
52295;DHT22;38243;53.212;6.574;2023-03-24T06:07:38;16.90;92.50
52295;DHT22;38243;53.212;6.574;2023-03-24T06:10:07;16.90;92.50
52295;DHT22;38243;53.212;6.574;2023-03-24T06:12:34;16.90;92.40
52295;DHT22;38243;53.212;6.574;2023-03-24T06:15:00;16.90;92.40
52295;DHT22;38243;53.212;6.574;2023-03-24T06:17:28;16.90;92.40
52295;DHT22;38243;53.212;6.574;2023-03-24T06:19:55;16.90;92.40
52295;DHT22;38243;53.212;6.574;2023-03-24T06:22:28;16.90;92.40
52295;DHT22;38243;53.212;6.574;2023-03-24T06:24:54;17.00;92.40
52295;DHT22;38243;53.212;6.574;2023-03-24T06:27:21;16.90;92.30
52295;DHT22;38243;53.212;6.574;2023-03-24T06:29:50;16.90;92.40
52295;DHT22;38243;53.212;6.574;2023-03-24T06:32:19;16.90;92.50
52295;DHT22;38243;53.212;6.574;2023-03-24T06:34:45;16.90;92.50
52295;DHT22;38243;53.212;6.574;2023-03-24T06:37:11;16.90;92.70
52295;DHT22;38243;53.212;6.574;2023-03-24T06:39:37;17.00;93.10
52295;DHT22;38243;53.212;6.574;2023-03-24T06:42:04;17.00;93.40
52295;DHT22;38243;53.212;6.574;2023-03-24T06:44:29;17.00;93.30
52295;DHT22;38243;53.212;6.574;2023-03-24T06:46:55;17.00;93.20
52295;DHT22;38243;53.212;6.574;2023-03-24T06:49:21;17.00;93.50
52295;DHT22;38243;53.212;6.574;2023-03-24T06:51:47;17.00;93.70
52295;DHT22;38243;53.212;6.574;2023-03-24T06:54:12;17.00;93.50
52295;DHT22;38243;53.212;6.574;2023-03-24T06:56:38;17.00;93.30
52295;DHT22;38243;53.212;6.574;2023-03-24T06:59:04;17.00;93.20
52295;DHT22;38243;53.212;6.574;2023-03-24T07:01:30;17.00;93.00
52295;DHT22;38243;53.212;6.574;2023-03-24T07:03:56;17.00;92.90
52295;DHT22;38243;53.212;6.574;2023-03-24T07:06:22;17.00;92.80
52295;DHT22;38243;53.212;6.574;2023-03-24T07:08:48;17.00;92.90
52295;DHT22;38243;53.212;6.574;2023-03-24T07:11:14;17.00;92.80
52295;DHT22;38243;53.212;6.574;2023-03-24T07:13:40;17.00;92.80
52295;DHT22;38243;53.212;6.574;2023-03-24T07:16:07;16.90;93.00
52295;DHT22;38243;53.212;6.574;2023-03-24T07:18:32;16.90;92.60
52295;DHT22;38243;53.212;6.574;2023-03-24T07:20:58;16.90;93.00
52295;DHT22;38243;53.212;6.574;2023-03-24T07:23:24;17.00;93.40
52295;DHT22;38243;53.212;6.574;2023-03-24T07:25:52;16.90;93.30
52295;DHT22;38243;53.212;6.574;2023-03-24T07:28:17;16.90;93.30
52295;DHT22;38243;53.212;6.574;2023-03-24T07:30:43;16.90;93.30
52295;DHT22;38243;53.212;6.574;2023-03-24T07:33:09;17.00;93.30
52295;DHT22;38243;53.212;6.574;2023-03-24T07:35:38;16.90;93.00
52295;DHT22;38243;53.212;6.574;2023-03-24T07:38:03;17.00;92.90
52295;DHT22;38243;53.212;6.574;2023-03-24T07:40:29;16.90;92.90
52295;DHT22;38243;53.212;6.574;2023-03-24T07:42:59;16.90;92.70
52295;DHT22;38243;53.212;6.574;2023-03-24T07:45:25;16.90;92.70
52295;DHT22;38243;53.212;6.574;2023-03-24T07:47:53;17.00;92.70
52295;DHT22;38243;53.212;6.574;2023-03-24T07:50:19;16.90;92.60
52295;DHT22;38243;53.212;6.574;2023-03-24T07:52:49;17.00;92.60
52295;DHT22;38243;53.212;6.574;2023-03-24T07:55:15;17.00;92.50
52295;DHT22;38243;53.212;6.574;2023-03-24T07:57:48;17.00;92.40
52295;DHT22;38243;53.212;6.574;2023-03-24T08:00:15;17.00;92.30
52295;DHT22;38243;53.212;6.574;2023-03-24T08:02:52;17.00;92.30
52295;DHT22;38243;53.212;6.574;2023-03-24T08:05:20;17.00;92.20
52295;DHT22;38243;53.212;6.574;2023-03-24T08:07:48;17.00;92.10
52295;DHT22;38243;53.212;6.574;2023-03-24T08:10:29;17.00;92.00
52295;DHT22;38243;53.212;6.574;2023-03-24T08:12:56;17.00;92.00
52295;DHT22;38243;53.212;6.574;2023-03-24T08:15:22;17.00;91.90
52295;DHT22;38243;53.212;6.574;2023-03-24T08:17:49;17.00;92.10
52295;DHT22;38243;53.212;6.574;2023-03-24T08:20:17;17.00;92.10
52295;DHT22;38243;53.212;6.574;2023-03-24T08:22:46;17.10;92.00
52295;DHT22;38243;53.212;6.574;2023-03-24T08:25:20;17.10;92.00
52295;DHT22;38243;53.212;6.574;2023-03-24T08:27:46;17.10;92.00
52295;DHT22;38243;53.212;6.574;2023-03-24T08:30:18;17.10;91.90
52295;DHT22;38243;53.212;6.574;2023-03-24T08:32:52;17.10;92.00
52295;DHT22;38243;53.212;6.574;2023-03-24T08:35:30;17.20;92.10
52295;DHT22;38243;53.212;6.574;2023-03-24T08:37:57;17.20;92.40
52295;DHT22;38243;53.212;6.574;2023-03-24T08:40:27;17.20;92.70
52295;DHT22;38243;53.212;6.574;2023-03-24T08:42:55;17.20;92.70
52295;DHT22;38243;53.212;6.574;2023-03-24T08:45:23;17.30;92.60
52295;DHT22;38243;53.212;6.574;2023-03-24T08:47:53;17.30;92.30
52295;DHT22;38243;53.212;6.574;2023-03-24T08:50:21;17.30;92.00
52295;DHT22;38243;53.212;6.574;2023-03-24T08:52:47;17.40;92.10
52295;DHT22;38243;53.212;6.574;2023-03-24T08:55:14;17.40;91.80
52295;DHT22;38243;53.212;6.574;2023-03-24T08:57:40;17.50;91.60
52295;DHT22;38243;53.212;6.574;2023-03-24T09:00:07;17.50;91.60
52295;DHT22;38243;53.212;6.574;2023-03-24T09:02:37;17.50;91.70
52295;DHT22;38243;53.212;6.574;2023-03-24T09:05:03;17.60;91.50
52295;DHT22;38243;53.212;6.574;2023-03-24T09:07:29;17.60;91.20
52295;DHT22;38243;53.212;6.574;2023-03-24T09:09:55;17.60;90.90
52295;DHT22;38243;53.212;6.574;2023-03-24T09:12:21;17.60;90.80
52295;DHT22;38243;53.212;6.574;2023-03-24T09:14:48;17.60;90.80
52295;DHT22;38243;53.212;6.574;2023-03-24T09:17:15;17.60;90.60
52295;DHT22;38243;53.212;6.574;2023-03-24T09:19:41;17.70;90.50
52295;DHT22;38243;53.212;6.574;2023-03-24T09:22:07;17.70;90.50
52295;DHT22;38243;53.212;6.574;2023-03-24T09:24:33;17.70;90.50
52295;DHT22;38243;53.212;6.574;2023-03-24T09:26:58;17.70;90.40
52295;DHT22;38243;53.212;6.574;2023-03-24T09:29:24;17.70;90.20
52295;DHT22;38243;53.212;6.574;2023-03-24T09:31:50;17.70;90.20
52295;DHT22;38243;53.212;6.574;2023-03-24T09:34:18;17.80;90.10
52295;DHT22;38243;53.212;6.574;2023-03-24T09:36:44;17.80;90.00
52295;DHT22;38243;53.212;6.574;2023-03-24T09:39:09;17.90;90.10
52295;DHT22;38243;53.212;6.574;2023-03-24T09:41:35;18.00;90.10
52295;DHT22;38243;53.212;6.574;2023-03-24T09:44:12;18.00;90.00
52295;DHT22;38243;53.212;6.574;2023-03-24T09:46:48;18.10;89.60
52295;DHT22;38243;53.212;6.574;2023-03-24T09:49:27;18.10;89.50
52295;DHT22;38243;53.212;6.574;2023-03-24T09:51:57;18.20;89.40
52295;DHT22;38243;53.212;6.574;2023-03-24T09:57:28;18.20;89.10
52295;DHT22;38243;53.212;6.574;2023-03-24T09:59:54;18.30;88.90
52295;DHT22;38243;53.212;6.574;2023-03-24T10:02:21;18.30;88.70
52295;DHT22;38243;53.212;6.574;2023-03-24T10:04:48;18.30;88.70
52295;DHT22;38243;53.212;6.574;2023-03-24T10:09:49;18.20;88.50
52295;DHT22;38243;53.212;6.574;2023-03-24T10:15:03;18.30;88.60
52295;DHT22;38243;53.212;6.574;2023-03-24T10:17:53;18.40;88.70
52295;DHT22;38243;53.212;6.574;2023-03-24T10:25:51;18.50;87.80
52295;DHT22;38243;53.212;6.574;2023-03-24T10:28:22;18.50;87.70
52295;DHT22;38243;53.212;6.574;2023-03-24T10:30:50;18.50;87.60
52295;DHT22;38243;53.212;6.574;2023-03-24T10:33:17;18.60;87.60
52295;DHT22;38243;53.212;6.574;2023-03-24T10:36:05;18.60;87.50
52295;DHT22;38243;53.212;6.574;2023-03-24T10:38:32;18.60;87.20
52295;DHT22;38243;53.212;6.574;2023-03-24T10:40:59;18.70;87.00
52295;DHT22;38243;53.212;6.574;2023-03-24T10:43:26;18.70;86.90
52295;DHT22;38243;53.212;6.574;2023-03-24T10:45:54;18.70;86.90
52295;DHT22;38243;53.212;6.574;2023-03-24T10:51:34;18.80;86.70
52295;DHT22;38243;53.212;6.574;2023-03-24T10:54:20;18.80;86.50
52295;DHT22;38243;53.212;6.574;2023-03-24T11:04:36;18.90;85.90
52295;DHT22;38243;53.212;6.574;2023-03-24T11:07:17;19.00;85.90
52295;DHT22;38243;53.212;6.574;2023-03-24T11:10:31;19.00;85.80
52295;DHT22;38243;53.212;6.574;2023-03-24T11:12:38;19.00;85.60
52295;DHT22;38243;53.212;6.574;2023-03-24T11:17:40;19.00;85.30
52295;DHT22;38243;53.212;6.574;2023-03-24T11:20:16;19.10;85.10
52295;DHT22;38243;53.212;6.574;2023-03-24T11:23:00;19.20;85.00
52295;DHT22;38243;53.212;6.574;2023-03-24T11:25:28;19.10;84.70
52295;DHT22;38243;53.212;6.574;2023-03-24T11:27:59;19.10;84.50
52295;DHT22;38243;53.212;6.574;2023-03-24T11:31:01;19.10;84.30
52295;DHT22;38243;53.212;6.574;2023-03-24T11:33:22;19.20;84.20
52295;DHT22;38243;53.212;6.574;2023-03-24T11:35:50;19.10;83.80
52295;DHT22;38243;53.212;6.574;2023-03-24T11:38:18;19.20;83.80
52295;DHT22;38243;53.212;6.574;2023-03-24T11:40:55;19.20;83.30
52295;DHT22;38243;53.212;6.574;2023-03-24T11:43:26;19.20;83.00
52295;DHT22;38243;53.212;6.574;2023-03-24T11:48:49;19.20;82.60
52295;DHT22;38243;53.212;6.574;2023-03-24T11:51:27;19.20;82.00
52295;DHT22;38243;53.212;6.574;2023-03-24T11:53:56;19.20;82.20
52295;DHT22;38243;53.212;6.574;2023-03-24T11:56:40;19.20;82.00
52295;DHT22;38243;53.212;6.574;2023-03-24T12:13:15;19.10;81.80
52295;DHT22;38243;53.212;6.574;2023-03-24T12:15:59;19.10;81.90
52295;DHT22;38243;53.212;6.574;2023-03-24T12:18:35;19.10;81.90
52295;DHT22;38243;53.212;6.574;2023-03-24T12:26:43;19.10;82.10
52295;DHT22;38243;53.212;6.574;2023-03-24T12:29:37;19.20;82.10
52295;DHT22;38243;53.212;6.574;2023-03-24T12:32:27;19.20;82.10
52295;DHT22;38243;53.212;6.574;2023-03-24T12:43:30;19.20;82.20
52295;DHT22;38243;53.212;6.574;2023-03-24T12:54:23;19.20;81.90
52295;DHT22;38243;53.212;6.574;2023-03-24T12:56:58;19.20;81.80
52295;DHT22;38243;53.212;6.574;2023-03-24T12:59:32;19.30;81.80
52295;DHT22;38243;53.212;6.574;2023-03-24T13:04:49;19.30;81.50
52295;DHT22;38243;53.212;6.574;2023-03-24T13:07:20;19.30;81.40
52295;DHT22;38243;53.212;6.574;2023-03-24T13:09:58;19.30;81.00
52295;DHT22;38243;53.212;6.574;2023-03-24T13:13:01;19.40;80.70
52295;DHT22;38243;53.212;6.574;2023-03-24T13:15:46;19.40;80.80
52295;DHT22;38243;53.212;6.574;2023-03-24T13:18:20;19.40;80.80
52295;DHT22;38243;53.212;6.574;2023-03-24T13:21:01;19.40;80.50
52295;DHT22;38243;53.212;6.574;2023-03-24T13:28:43;19.50;80.30
52295;DHT22;38243;53.212;6.574;2023-03-24T13:31:12;19.50;79.50
52295;DHT22;38243;53.212;6.574;2023-03-24T13:33:39;19.50;78.80
52295;DHT22;38243;53.212;6.574;2023-03-24T13:39:03;19.50;78.10
52295;DHT22;38243;53.212;6.574;2023-03-24T13:41:34;19.50;77.60
52295;DHT22;38243;53.212;6.574;2023-03-24T13:44:18;19.50;77.10
52295;DHT22;38243;53.212;6.574;2023-03-24T13:49:38;19.50;76.90
52295;DHT22;38243;53.212;6.574;2023-03-24T13:52:18;19.50;77.00
52295;DHT22;38243;53.212;6.574;2023-03-24T13:54:46;19.40;76.60
52295;DHT22;38243;53.212;6.574;2023-03-24T13:57:19;19.50;76.60
52295;DHT22;38243;53.212;6.574;2023-03-24T14:02:46;19.50;76.80
52295;DHT22;38243;53.212;6.574;2023-03-24T14:13:04;19.50;76.40
52295;DHT22;38243;53.212;6.574;2023-03-24T14:15:55;19.50;76.30
52295;DHT22;38243;53.212;6.574;2023-03-24T14:25:57;19.50;75.30
52295;DHT22;38243;53.212;6.574;2023-03-24T14:28:30;19.50;75.10
52295;DHT22;38243;53.212;6.574;2023-03-24T14:36:37;19.50;75.70
52295;DHT22;38243;53.212;6.574;2023-03-24T14:41:51;19.50;75.90
52295;DHT22;38243;53.212;6.574;2023-03-24T14:47:26;19.50;75.70
52295;DHT22;38243;53.212;6.574;2023-03-24T14:49:54;19.50;75.80
52295;DHT22;38243;53.212;6.574;2023-03-24T14:52:24;19.50;75.80
52295;DHT22;38243;53.212;6.574;2023-03-24T14:55:03;19.50;75.80
52295;DHT22;38243;53.212;6.574;2023-03-24T14:57:31;19.50;75.70
52295;DHT22;38243;53.212;6.574;2023-03-24T15:02:42;19.50;75.40
52295;DHT22;38243;53.212;6.574;2023-03-24T15:05:14;19.50;75.10
52295;DHT22;38243;53.212;6.574;2023-03-24T15:07:42;19.50;75.10
52295;DHT22;38243;53.212;6.574;2023-03-24T15:10:15;19.50;75.20
52295;DHT22;38243;53.212;6.574;2023-03-24T15:12:46;19.50;75.40
52295;DHT22;38243;53.212;6.574;2023-03-24T15:15:26;19.50;75.40
52295;DHT22;38243;53.212;6.574;2023-03-24T15:17:52;19.50;75.50
52295;DHT22;38243;53.212;6.574;2023-03-24T15:20:32;19.40;75.50
52295;DHT22;38243;53.212;6.574;2023-03-24T15:23:06;19.50;75.60
52295;DHT22;38243;53.212;6.574;2023-03-24T15:25:33;19.50;75.70
52295;DHT22;38243;53.212;6.574;2023-03-24T15:27:59;19.50;76.10
52295;DHT22;38243;53.212;6.574;2023-03-24T15:30:25;19.40;75.40
52295;DHT22;38243;53.212;6.574;2023-03-24T15:32:52;19.40;75.40
52295;DHT22;38243;53.212;6.574;2023-03-24T15:35:21;19.40;75.40
52295;DHT22;38243;53.212;6.574;2023-03-24T15:37:54;19.40;75.40
52295;DHT22;38243;53.212;6.574;2023-03-24T15:43:00;19.40;75.20
52295;DHT22;38243;53.212;6.574;2023-03-24T15:45:42;19.40;75.10
52295;DHT22;38243;53.212;6.574;2023-03-24T15:48:13;19.30;74.70
52295;DHT22;38243;53.212;6.574;2023-03-24T15:50:40;19.30;75.00
52295;DHT22;38243;53.212;6.574;2023-03-24T15:55:44;19.30;75.50
52295;DHT22;38243;53.212;6.574;2023-03-24T15:58:28;19.30;76.10
52295;DHT22;38243;53.212;6.574;2023-03-24T16:01:01;19.30;76.70
52295;DHT22;38243;53.212;6.574;2023-03-24T16:03:30;19.30;77.50
52295;DHT22;38243;53.212;6.574;2023-03-24T16:05:58;19.20;78.00
52295;DHT22;38243;53.212;6.574;2023-03-24T16:08:27;19.20;78.80
52295;DHT22;38243;53.212;6.574;2023-03-24T16:11:12;19.20;78.80
52295;DHT22;38243;53.212;6.574;2023-03-24T16:13:40;19.20;79.10
52295;DHT22;38243;53.212;6.574;2023-03-24T16:18:40;19.20;78.70
52295;DHT22;38243;53.212;6.574;2023-03-24T16:21:19;19.20;79.00
52295;DHT22;38243;53.212;6.574;2023-03-24T16:23:45;19.20;78.90
52295;DHT22;38243;53.212;6.574;2023-03-24T16:26:16;19.20;78.70
52295;DHT22;38243;53.212;6.574;2023-03-24T16:28:43;19.20;78.70
52295;DHT22;38243;53.212;6.574;2023-03-24T16:31:17;19.20;78.50
52295;DHT22;38243;53.212;6.574;2023-03-24T16:33:46;19.20;78.20
52295;DHT22;38243;53.212;6.574;2023-03-24T16:36:12;19.10;78.30
52295;DHT22;38243;53.212;6.574;2023-03-24T16:38:40;19.10;78.40
52295;DHT22;38243;53.212;6.574;2023-03-24T16:41:07;19.10;78.50
52295;DHT22;38243;53.212;6.574;2023-03-24T16:43:35;19.00;79.20
52295;DHT22;38243;53.212;6.574;2023-03-24T16:46:02;19.00;78.80
52295;DHT22;38243;53.212;6.574;2023-03-24T16:48:28;19.00;78.70
52295;DHT22;38243;53.212;6.574;2023-03-24T16:50:53;19.00;79.00
52295;DHT22;38243;53.212;6.574;2023-03-24T16:53:20;19.00;79.10
52295;DHT22;38243;53.212;6.574;2023-03-24T16:55:46;19.00;79.00
52295;DHT22;38243;53.212;6.574;2023-03-24T16:58:14;19.00;79.00
52295;DHT22;38243;53.212;6.574;2023-03-24T17:00:41;19.00;78.80
52295;DHT22;38243;53.212;6.574;2023-03-24T17:03:14;19.00;78.80
52295;DHT22;38243;53.212;6.574;2023-03-24T17:05:43;19.00;79.40
52295;DHT22;38243;53.212;6.574;2023-03-24T17:08:11;19.00;79.10
52295;DHT22;38243;53.212;6.574;2023-03-24T17:10:38;19.00;79.10
52295;DHT22;38243;53.212;6.574;2023-03-24T17:13:04;19.00;79.80
52295;DHT22;38243;53.212;6.574;2023-03-24T17:15:31;19.00;79.00
52295;DHT22;38243;53.212;6.574;2023-03-24T17:17:58;19.00;79.30
52295;DHT22;38243;53.212;6.574;2023-03-24T17:20:25;18.90;79.40
52295;DHT22;38243;53.212;6.574;2023-03-24T17:22:53;18.90;79.50
52295;DHT22;38243;53.212;6.574;2023-03-24T17:25:21;18.90;79.50
52295;DHT22;38243;53.212;6.574;2023-03-24T17:27:50;18.90;79.60
52295;DHT22;38243;53.212;6.574;2023-03-24T17:30:21;18.90;79.60
52295;DHT22;38243;53.212;6.574;2023-03-24T17:32:47;18.90;79.80
52295;DHT22;38243;53.212;6.574;2023-03-24T17:35:15;18.80;79.80
52295;DHT22;38243;53.212;6.574;2023-03-24T17:37:41;18.80;80.10
52295;DHT22;38243;53.212;6.574;2023-03-24T17:40:09;18.80;80.20
52295;DHT22;38243;53.212;6.574;2023-03-24T17:42:38;18.80;80.90
52295;DHT22;38243;53.212;6.574;2023-03-24T17:45:06;18.80;81.70
52295;DHT22;38243;53.212;6.574;2023-03-24T17:47:33;18.70;81.50
52295;DHT22;38243;53.212;6.574;2023-03-24T17:49:58;17.00;80.20
52295;DHT22;38243;53.212;6.574;2023-03-24T17:52:24;18.70;81.20
52295;DHT22;38243;53.212;6.574;2023-03-24T17:54:50;18.70;81.40
52295;DHT22;38243;53.212;6.574;2023-03-24T17:57:16;18.60;81.90
52295;DHT22;38243;53.212;6.574;2023-03-24T17:59:42;18.60;82.10
52295;DHT22;38243;53.212;6.574;2023-03-24T18:02:12;18.60;81.70
52295;DHT22;38243;53.212;6.574;2023-03-24T18:04:38;18.60;81.60
52295;DHT22;38243;53.212;6.574;2023-03-24T18:07:04;18.50;81.50
52295;DHT22;38243;53.212;6.574;2023-03-24T18:09:33;18.50;81.40
52295;DHT22;38243;53.212;6.574;2023-03-24T18:11:59;18.50;81.20
52295;DHT22;38243;53.212;6.574;2023-03-24T18:14:25;18.50;81.20
52295;DHT22;38243;53.212;6.574;2023-03-24T18:16:51;18.40;81.20
52295;DHT22;38243;53.212;6.574;2023-03-24T18:19:16;18.40;81.10
52295;DHT22;38243;53.212;6.574;2023-03-24T18:21:42;18.40;81.00
52295;DHT22;38243;53.212;6.574;2023-03-24T18:24:09;18.40;81.50
52295;DHT22;38243;53.212;6.574;2023-03-24T18:26:35;18.50;81.30
52295;DHT22;38243;53.212;6.574;2023-03-24T18:29:01;18.40;81.10
52295;DHT22;38243;53.212;6.574;2023-03-24T18:31:26;18.40;80.10
52295;DHT22;38243;53.212;6.574;2023-03-24T18:33:53;18.30;79.80
52295;DHT22;38243;53.212;6.574;2023-03-24T18:36:20;18.30;79.80
52295;DHT22;38243;53.212;6.574;2023-03-24T18:39:12;18.30;79.50
52295;DHT22;38243;53.212;6.574;2023-03-24T18:41:38;18.30;79.70
52295;DHT22;38243;53.212;6.574;2023-03-24T18:44:06;18.30;79.60
52295;DHT22;38243;53.212;6.574;2023-03-24T18:46:32;18.30;79.40
52295;DHT22;38243;53.212;6.574;2023-03-24T18:48:58;18.20;79.30
52295;DHT22;38243;53.212;6.574;2023-03-24T18:51:25;18.20;79.50